sensor_id;sensor_type;location;lat;lon;timestamp;P1;durP1;ratioP1;P2;durP2;ratioP2
77105;SDS011;66057;54.718;18.426;2023-04-29T00:00:03;2.72;;;1.55;;
77105;SDS011;66057;54.718;18.426;2023-04-29T00:02:51;3.45;;;1.77;;
77105;SDS011;66057;54.718;18.426;2023-04-29T00:05:17;4.60;;;2.22;;
77105;SDS011;66057;54.718;18.426;2023-04-29T00:07:45;5.93;;;2.45;;
77105;SDS011;66057;54.718;18.426;2023-04-29T00:10:11;3.90;;;1.73;;
77105;SDS011;66057;54.718;18.426;2023-04-29T00:12:39;3.97;;;2.33;;
77105;SDS011;66057;54.718;18.426;2023-04-29T00:15:06;5.40;;;2.42;;
77105;SDS011;66057;54.718;18.426;2023-04-29T00:17:35;6.32;;;2.70;;
77105;SDS011;66057;54.718;18.426;2023-04-29T00:20:03;5.43;;;2.50;;
77105;SDS011;66057;54.718;18.426;2023-04-29T00:22:29;6.43;;;2.70;;
77105;SDS011;66057;54.718;18.426;2023-04-29T00:25:02;5.55;;;2.22;;
77105;SDS011;66057;54.718;18.426;2023-04-29T00:27:29;6.35;;;2.75;;
77105;SDS011;66057;54.718;18.426;2023-04-29T00:29:55;5.80;;;2.53;;
77105;SDS011;66057;54.718;18.426;2023-04-29T00:32:22;6.28;;;2.72;;
77105;SDS011;66057;54.718;18.426;2023-04-29T00:34:48;7.68;;;2.78;;
77105;SDS011;66057;54.718;18.426;2023-04-29T00:37:14;4.60;;;2.60;;
77105;SDS011;66057;54.718;18.426;2023-04-29T00:39:40;6.18;;;2.78;;
77105;SDS011;66057;54.718;18.426;2023-04-29T00:42:06;6.82;;;3.20;;
77105;SDS011;66057;54.718;18.426;2023-04-29T00:44:32;5.60;;;3.00;;
77105;SDS011;66057;54.718;18.426;2023-04-29T00:46:58;7.93;;;3.35;;
77105;SDS011;66057;54.718;18.426;2023-04-29T00:49:25;7.43;;;3.08;;
77105;SDS011;66057;54.718;18.426;2023-04-29T00:51:51;7.15;;;3.00;;
77105;SDS011;66057;54.718;18.426;2023-04-29T00:56:44;4.10;;;2.45;;
77105;SDS011;66057;54.718;18.426;2023-04-29T00:59:10;5.63;;;2.58;;
77105;SDS011;66057;54.718;18.426;2023-04-29T01:01:37;8.57;;;3.15;;
77105;SDS011;66057;54.718;18.426;2023-04-29T01:06:39;6.68;;;2.95;;
77105;SDS011;66057;54.718;18.426;2023-04-29T01:12:07;5.10;;;2.85;;
77105;SDS011;66057;54.718;18.426;2023-04-29T01:17:55;9.20;;;3.42;;
77105;SDS011;66057;54.718;18.426;2023-04-29T01:20:25;6.50;;;3.30;;
77105;SDS011;66057;54.718;18.426;2023-04-29T01:22:51;6.60;;;3.15;;
77105;SDS011;66057;54.718;18.426;2023-04-29T01:25:17;6.85;;;3.05;;
77105;SDS011;66057;54.718;18.426;2023-04-29T01:28:01;7.43;;;3.28;;
77105;SDS011;66057;54.718;18.426;2023-04-29T01:33:16;7.97;;;3.35;;
77105;SDS011;66057;54.718;18.426;2023-04-29T01:44:01;7.13;;;2.60;;
77105;SDS011;66057;54.718;18.426;2023-04-29T01:46:30;6.20;;;3.65;;
77105;SDS011;66057;54.718;18.426;2023-04-29T01:48:56;6.05;;;3.35;;
77105;SDS011;66057;54.718;18.426;2023-04-29T01:51:22;8.45;;;3.05;;
77105;SDS011;66057;54.718;18.426;2023-04-29T01:53:48;5.85;;;3.40;;
77105;SDS011;66057;54.718;18.426;2023-04-29T01:56:14;6.35;;;2.67;;
77105;SDS011;66057;54.718;18.426;2023-04-29T01:58:39;7.10;;;3.28;;
77105;SDS011;66057;54.718;18.426;2023-04-29T02:01:05;6.75;;;3.33;;
77105;SDS011;66057;54.718;18.426;2023-04-29T02:03:31;5.53;;;3.05;;
77105;SDS011;66057;54.718;18.426;2023-04-29T02:05:56;6.05;;;3.65;;
77105;SDS011;66057;54.718;18.426;2023-04-29T02:08:22;7.68;;;3.20;;
77105;SDS011;66057;54.718;18.426;2023-04-29T02:10:52;6.95;;;2.88;;
77105;SDS011;66057;54.718;18.426;2023-04-29T02:13:18;5.40;;;3.10;;
77105;SDS011;66057;54.718;18.426;2023-04-29T02:15:44;4.45;;;2.50;;
77105;SDS011;66057;54.718;18.426;2023-04-29T02:18:10;4.25;;;2.67;;
77105;SDS011;66057;54.718;18.426;2023-04-29T02:20:35;7.68;;;3.45;;
77105;SDS011;66057;54.718;18.426;2023-04-29T02:23:01;5.65;;;3.30;;
77105;SDS011;66057;54.718;18.426;2023-04-29T02:25:27;6.05;;;2.85;;
77105;SDS011;66057;54.718;18.426;2023-04-29T02:27:52;3.85;;;2.30;;
77105;SDS011;66057;54.718;18.426;2023-04-29T02:30:18;6.75;;;2.72;;
77105;SDS011;66057;54.718;18.426;2023-04-29T02:32:43;8.57;;;2.88;;
77105;SDS011;66057;54.718;18.426;2023-04-29T02:35:09;6.07;;;3.20;;
77105;SDS011;66057;54.718;18.426;2023-04-29T02:37:34;14.20;;;3.55;;
77105;SDS011;66057;54.718;18.426;2023-04-29T02:40:00;5.15;;;2.28;;
77105;SDS011;66057;54.718;18.426;2023-04-29T02:42:27;5.57;;;2.95;;
77105;SDS011;66057;54.718;18.426;2023-04-29T02:44:54;9.60;;;3.22;;
77105;SDS011;66057;54.718;18.426;2023-04-29T02:47:19;7.97;;;3.38;;
77105;SDS011;66057;54.718;18.426;2023-04-29T02:49:46;5.82;;;3.22;;
77105;SDS011;66057;54.718;18.426;2023-04-29T02:52:12;6.63;;;3.47;;
77105;SDS011;66057;54.718;18.426;2023-04-29T02:54:41;7.45;;;3.10;;
77105;SDS011;66057;54.718;18.426;2023-04-29T02:57:07;8.82;;;3.28;;
77105;SDS011;66057;54.718;18.426;2023-04-29T02:59:34;7.70;;;3.92;;
77105;SDS011;66057;54.718;18.426;2023-04-29T03:02:00;6.07;;;2.75;;
77105;SDS011;66057;54.718;18.426;2023-04-29T03:04:28;6.35;;;3.25;;
77105;SDS011;66057;54.718;18.426;2023-04-29T03:06:54;7.40;;;4.13;;
77105;SDS011;66057;54.718;18.426;2023-04-29T03:09:22;7.43;;;2.78;;
77105;SDS011;66057;54.718;18.426;2023-04-29T03:11:47;8.15;;;2.78;;
77105;SDS011;66057;54.718;18.426;2023-04-29T03:14:15;4.72;;;2.50;;
77105;SDS011;66057;54.718;18.426;2023-04-29T03:16:41;9.95;;;3.38;;
77105;SDS011;66057;54.718;18.426;2023-04-29T03:19:07;6.90;;;2.70;;
77105;SDS011;66057;54.718;18.426;2023-04-29T03:21:34;4.85;;;2.40;;
77105;SDS011;66057;54.718;18.426;2023-04-29T03:24:00;5.60;;;2.78;;
77105;SDS011;66057;54.718;18.426;2023-04-29T03:26:26;4.22;;;2.65;;
77105;SDS011;66057;54.718;18.426;2023-04-29T03:28:52;6.00;;;3.10;;
77105;SDS011;66057;54.718;18.426;2023-04-29T03:31:17;6.00;;;3.10;;
77105;SDS011;66057;54.718;18.426;2023-04-29T03:33:45;6.22;;;2.78;;
77105;SDS011;66057;54.718;18.426;2023-04-29T03:36:11;6.10;;;2.60;;
77105;SDS011;66057;54.718;18.426;2023-04-29T03:38:38;6.38;;;3.33;;
77105;SDS011;66057;54.718;18.426;2023-04-29T03:41:04;5.00;;;2.58;;
77105;SDS011;66057;54.718;18.426;2023-04-29T03:43:30;7.45;;;2.95;;
77105;SDS011;66057;54.718;18.426;2023-04-29T03:45:56;6.05;;;3.35;;
77105;SDS011;66057;54.718;18.426;2023-04-29T03:50:50;5.78;;;3.00;;
77105;SDS011;66057;54.718;18.426;2023-04-29T03:53:16;6.53;;;3.08;;
77105;SDS011;66057;54.718;18.426;2023-04-29T03:55:42;7.43;;;2.70;;
77105;SDS011;66057;54.718;18.426;2023-04-29T03:58:07;7.30;;;3.35;;
77105;SDS011;66057;54.718;18.426;2023-04-29T04:00:33;8.38;;;3.10;;
77105;SDS011;66057;54.718;18.426;2023-04-29T04:02:59;6.40;;;3.25;;
77105;SDS011;66057;54.718;18.426;2023-04-29T04:05:24;5.30;;;3.22;;
77105;SDS011;66057;54.718;18.426;2023-04-29T04:07:51;5.30;;;3.08;;
77105;SDS011;66057;54.718;18.426;2023-04-29T04:10:16;7.45;;;3.78;;
77105;SDS011;66057;54.718;18.426;2023-04-29T04:12:43;8.52;;;4.00;;
77105;SDS011;66057;54.718;18.426;2023-04-29T04:15:08;7.60;;;3.95;;
77105;SDS011;66057;54.718;18.426;2023-04-29T04:17:35;9.18;;;4.00;;
77105;SDS011;66057;54.718;18.426;2023-04-29T04:20:00;10.38;;;3.17;;
77105;SDS011;66057;54.718;18.426;2023-04-29T04:22:26;6.03;;;3.85;;
77105;SDS011;66057;54.718;18.426;2023-04-29T04:24:54;6.70;;;3.90;;
77105;SDS011;66057;54.718;18.426;2023-04-29T04:27:20;8.00;;;3.63;;
77105;SDS011;66057;54.718;18.426;2023-04-29T04:29:46;8.13;;;4.00;;
77105;SDS011;66057;54.718;18.426;2023-04-29T04:32:12;11.07;;;4.05;;
77105;SDS011;66057;54.718;18.426;2023-04-29T04:34:39;6.38;;;3.30;;
77105;SDS011;66057;54.718;18.426;2023-04-29T04:37:04;8.77;;;3.47;;
77105;SDS011;66057;54.718;18.426;2023-04-29T04:39:32;10.18;;;4.10;;
77105;SDS011;66057;54.718;18.426;2023-04-29T04:41:58;11.20;;;3.92;;
77105;SDS011;66057;54.718;18.426;2023-04-29T04:44:24;8.02;;;3.45;;
77105;SDS011;66057;54.718;18.426;2023-04-29T04:46:54;7.90;;;3.95;;
77105;SDS011;66057;54.718;18.426;2023-04-29T04:49:22;5.40;;;3.72;;
77105;SDS011;66057;54.718;18.426;2023-04-29T04:51:49;6.13;;;3.78;;
77105;SDS011;66057;54.718;18.426;2023-04-29T04:54:16;9.20;;;3.85;;
77105;SDS011;66057;54.718;18.426;2023-04-29T04:56:43;9.02;;;3.65;;
77105;SDS011;66057;54.718;18.426;2023-04-29T04:59:10;5.00;;;3.58;;
77105;SDS011;66057;54.718;18.426;2023-04-29T05:01:37;5.75;;;3.17;;
77105;SDS011;66057;54.718;18.426;2023-04-29T05:04:05;6.50;;;3.50;;
77105;SDS011;66057;54.718;18.426;2023-04-29T05:06:33;5.75;;;3.50;;
77105;SDS011;66057;54.718;18.426;2023-04-29T05:08:59;8.05;;;3.63;;
77105;SDS011;66057;54.718;18.426;2023-04-29T05:11:25;7.95;;;3.92;;
77105;SDS011;66057;54.718;18.426;2023-04-29T05:13:50;7.40;;;3.40;;
77105;SDS011;66057;54.718;18.426;2023-04-29T05:16:17;7.82;;;3.90;;
77105;SDS011;66057;54.718;18.426;2023-04-29T05:18:44;9.15;;;4.65;;
77105;SDS011;66057;54.718;18.426;2023-04-29T05:28:31;12.77;;;3.78;;
77105;SDS011;66057;54.718;18.426;2023-04-29T05:30:59;9.23;;;4.20;;
77105;SDS011;66057;54.718;18.426;2023-04-29T05:33:25;7.95;;;4.00;;
77105;SDS011;66057;54.718;18.426;2023-04-29T05:35:52;6.68;;;3.63;;
77105;SDS011;66057;54.718;18.426;2023-04-29T05:38:21;11.13;;;4.80;;
77105;SDS011;66057;54.718;18.426;2023-04-29T05:40:55;9.10;;;4.10;;
77105;SDS011;66057;54.718;18.426;2023-04-29T05:43:28;7.10;;;4.03;;
77105;SDS011;66057;54.718;18.426;2023-04-29T05:48:20;9.02;;;4.85;;
77105;SDS011;66057;54.718;18.426;2023-04-29T05:50:49;10.95;;;4.63;;
77105;SDS011;66057;54.718;18.426;2023-04-29T05:53:15;11.75;;;4.47;;
77105;SDS011;66057;54.718;18.426;2023-04-29T05:55:42;12.77;;;5.15;;
77105;SDS011;66057;54.718;18.426;2023-04-29T05:58:10;8.30;;;4.25;;
77105;SDS011;66057;54.718;18.426;2023-04-29T06:00:41;8.43;;;4.38;;
77105;SDS011;66057;54.718;18.426;2023-04-29T06:03:08;9.35;;;5.45;;
77105;SDS011;66057;54.718;18.426;2023-04-29T06:05:37;9.35;;;4.38;;
77105;SDS011;66057;54.718;18.426;2023-04-29T06:08:04;8.77;;;3.67;;
77105;SDS011;66057;54.718;18.426;2023-04-29T06:10:31;7.90;;;4.53;;
77105;SDS011;66057;54.718;18.426;2023-04-29T06:12:57;9.77;;;5.32;;
77105;SDS011;66057;54.718;18.426;2023-04-29T06:15:28;9.18;;;5.45;;
77105;SDS011;66057;54.718;18.426;2023-04-29T06:17:57;8.70;;;4.45;;
77105;SDS011;66057;54.718;18.426;2023-04-29T06:20:24;7.35;;;4.05;;
77105;SDS011;66057;54.718;18.426;2023-04-29T06:22:51;10.48;;;4.80;;
77105;SDS011;66057;54.718;18.426;2023-04-29T06:25:17;9.00;;;4.65;;
77105;SDS011;66057;54.718;18.426;2023-04-29T06:27:43;9.32;;;4.57;;
77105;SDS011;66057;54.718;18.426;2023-04-29T06:30:10;9.18;;;4.50;;
77105;SDS011;66057;54.718;18.426;2023-04-29T06:32:37;11.95;;;5.20;;
77105;SDS011;66057;54.718;18.426;2023-04-29T06:35:03;12.32;;;4.90;;
77105;SDS011;66057;54.718;18.426;2023-04-29T06:37:30;11.35;;;5.60;;
77105;SDS011;66057;54.718;18.426;2023-04-29T06:39:59;11.27;;;4.93;;
77105;SDS011;66057;54.718;18.426;2023-04-29T06:42:27;12.55;;;4.60;;
77105;SDS011;66057;54.718;18.426;2023-04-29T06:44:57;11.68;;;5.47;;
77105;SDS011;66057;54.718;18.426;2023-04-29T06:47:26;7.95;;;4.68;;
77105;SDS011;66057;54.718;18.426;2023-04-29T06:49:55;8.25;;;4.72;;
77105;SDS011;66057;54.718;18.426;2023-04-29T06:52:21;12.25;;;5.35;;
77105;SDS011;66057;54.718;18.426;2023-04-29T06:54:49;9.75;;;5.18;;
77105;SDS011;66057;54.718;18.426;2023-04-29T06:57:14;7.22;;;4.80;;
77105;SDS011;66057;54.718;18.426;2023-04-29T06:59:45;9.73;;;4.97;;
77105;SDS011;66057;54.718;18.426;2023-04-29T07:02:10;8.57;;;5.10;;
77105;SDS011;66057;54.718;18.426;2023-04-29T07:04:38;6.78;;;4.22;;
77105;SDS011;66057;54.718;18.426;2023-04-29T07:07:12;8.93;;;4.78;;
77105;SDS011;66057;54.718;18.426;2023-04-29T07:09:38;11.02;;;5.07;;
77105;SDS011;66057;54.718;18.426;2023-04-29T07:12:20;9.75;;;5.57;;
77105;SDS011;66057;54.718;18.426;2023-04-29T07:14:48;6.68;;;4.95;;
77105;SDS011;66057;54.718;18.426;2023-04-29T07:17:14;7.22;;;4.70;;
77105;SDS011;66057;54.718;18.426;2023-04-29T07:19:40;12.55;;;5.05;;
77105;SDS011;66057;54.718;18.426;2023-04-29T07:22:06;7.03;;;4.72;;
77105;SDS011;66057;54.718;18.426;2023-04-29T07:24:33;9.23;;;5.43;;
77105;SDS011;66057;54.718;18.426;2023-04-29T07:27:07;9.25;;;5.00;;
77105;SDS011;66057;54.718;18.426;2023-04-29T07:29:33;9.18;;;5.07;;
77105;SDS011;66057;54.718;18.426;2023-04-29T07:31:58;11.13;;;5.85;;
77105;SDS011;66057;54.718;18.426;2023-04-29T07:34:24;8.05;;;5.43;;
77105;SDS011;66057;54.718;18.426;2023-04-29T07:36:49;11.55;;;5.63;;
77105;SDS011;66057;54.718;18.426;2023-04-29T07:39:15;9.93;;;5.35;;
77105;SDS011;66057;54.718;18.426;2023-04-29T07:41:41;13.65;;;6.25;;
77105;SDS011;66057;54.718;18.426;2023-04-29T07:44:07;8.95;;;5.43;;
77105;SDS011;66057;54.718;18.426;2023-04-29T07:46:33;11.38;;;5.32;;
77105;SDS011;66057;54.718;18.426;2023-04-29T07:49:00;10.70;;;5.70;;
77105;SDS011;66057;54.718;18.426;2023-04-29T07:51:26;12.48;;;6.43;;
77105;SDS011;66057;54.718;18.426;2023-04-29T07:53:56;10.23;;;5.97;;
77105;SDS011;66057;54.718;18.426;2023-04-29T07:56:22;11.32;;;6.72;;
77105;SDS011;66057;54.718;18.426;2023-04-29T07:58:50;12.13;;;6.30;;
77105;SDS011;66057;54.718;18.426;2023-04-29T08:01:31;12.48;;;6.63;;
77105;SDS011;66057;54.718;18.426;2023-04-29T08:03:59;8.88;;;5.25;;
77105;SDS011;66057;54.718;18.426;2023-04-29T08:06:24;10.00;;;6.50;;
77105;SDS011;66057;54.718;18.426;2023-04-29T08:08:55;12.82;;;6.88;;
77105;SDS011;66057;54.718;18.426;2023-04-29T08:11:21;10.98;;;6.80;;
77105;SDS011;66057;54.718;18.426;2023-04-29T08:13:50;13.32;;;6.45;;
77105;SDS011;66057;54.718;18.426;2023-04-29T08:16:20;13.90;;;7.00;;
77105;SDS011;66057;54.718;18.426;2023-04-29T08:18:50;13.00;;;6.60;;
77105;SDS011;66057;54.718;18.426;2023-04-29T08:21:16;10.30;;;6.55;;
77105;SDS011;66057;54.718;18.426;2023-04-29T08:23:44;10.50;;;7.20;;
77105;SDS011;66057;54.718;18.426;2023-04-29T08:26:10;10.40;;;6.88;;
77105;SDS011;66057;54.718;18.426;2023-04-29T08:28:39;13.68;;;7.60;;
77105;SDS011;66057;54.718;18.426;2023-04-29T08:33:34;15.32;;;7.90;;
77105;SDS011;66057;54.718;18.426;2023-04-29T08:36:03;12.88;;;6.57;;
77105;SDS011;66057;54.718;18.426;2023-04-29T08:38:34;11.23;;;7.20;;
77105;SDS011;66057;54.718;18.426;2023-04-29T08:41:01;13.57;;;7.15;;
77105;SDS011;66057;54.718;18.426;2023-04-29T08:43:29;14.55;;;7.50;;
77105;SDS011;66057;54.718;18.426;2023-04-29T08:46:02;15.45;;;7.90;;
77105;SDS011;66057;54.718;18.426;2023-04-29T08:48:39;17.30;;;7.50;;
77105;SDS011;66057;54.718;18.426;2023-04-29T08:51:05;12.48;;;7.50;;
77105;SDS011;66057;54.718;18.426;2023-04-29T08:53:34;13.32;;;8.50;;
77105;SDS011;66057;54.718;18.426;2023-04-29T08:56:02;14.65;;;8.00;;
77105;SDS011;66057;54.718;18.426;2023-04-29T08:58:33;14.13;;;8.40;;
77105;SDS011;66057;54.718;18.426;2023-04-29T09:01:05;17.50;;;8.27;;
77105;SDS011;66057;54.718;18.426;2023-04-29T09:06:07;10.65;;;7.25;;
77105;SDS011;66057;54.718;18.426;2023-04-29T09:08:35;15.48;;;8.07;;
77105;SDS011;66057;54.718;18.426;2023-04-29T09:11:01;15.07;;;8.43;;
77105;SDS011;66057;54.718;18.426;2023-04-29T09:13:29;16.50;;;8.77;;
77105;SDS011;66057;54.718;18.426;2023-04-29T09:15:56;14.45;;;9.63;;
77105;SDS011;66057;54.718;18.426;2023-04-29T09:23:43;16.67;;;9.95;;
77105;SDS011;66057;54.718;18.426;2023-04-29T09:26:09;17.08;;;8.85;;
77105;SDS011;66057;54.718;18.426;2023-04-29T09:28:34;17.60;;;9.32;;
77105;SDS011;66057;54.718;18.426;2023-04-29T09:31:00;14.10;;;9.02;;
77105;SDS011;66057;54.718;18.426;2023-04-29T09:33:52;16.63;;;10.07;;
77105;SDS011;66057;54.718;18.426;2023-04-29T09:39:13;14.73;;;9.30;;
77105;SDS011;66057;54.718;18.426;2023-04-29T09:44:18;15.77;;;9.80;;
77105;SDS011;66057;54.718;18.426;2023-04-29T09:49:28;12.38;;;9.55;;
77105;SDS011;66057;54.718;18.426;2023-04-29T09:52:03;16.77;;;10.38;;
77105;SDS011;66057;54.718;18.426;2023-04-29T09:54:31;18.00;;;9.57;;
77105;SDS011;66057;54.718;18.426;2023-04-29T09:56:58;14.00;;;9.88;;
77105;SDS011;66057;54.718;18.426;2023-04-29T09:59:26;15.98;;;9.23;;
77105;SDS011;66057;54.718;18.426;2023-04-29T10:01:55;16.30;;;9.80;;
77105;SDS011;66057;54.718;18.426;2023-04-29T10:04:23;17.02;;;10.00;;
77105;SDS011;66057;54.718;18.426;2023-04-29T10:06:53;12.43;;;8.30;;
77105;SDS011;66057;54.718;18.426;2023-04-29T10:09:21;18.15;;;9.75;;
77105;SDS011;66057;54.718;18.426;2023-04-29T10:11:48;17.95;;;10.50;;
77105;SDS011;66057;54.718;18.426;2023-04-29T10:14:25;15.23;;;9.70;;
77105;SDS011;66057;54.718;18.426;2023-04-29T10:16:58;16.48;;;10.13;;
77105;SDS011;66057;54.718;18.426;2023-04-29T10:19:38;19.48;;;10.45;;
77105;SDS011;66057;54.718;18.426;2023-04-29T10:22:09;17.33;;;11.13;;
77105;SDS011;66057;54.718;18.426;2023-04-29T10:24:41;17.55;;;10.95;;
77105;SDS011;66057;54.718;18.426;2023-04-29T10:27:08;18.40;;;10.88;;
77105;SDS011;66057;54.718;18.426;2023-04-29T10:29:38;17.55;;;10.68;;
77105;SDS011;66057;54.718;18.426;2023-04-29T10:32:07;21.85;;;11.57;;
77105;SDS011;66057;54.718;18.426;2023-04-29T10:34:37;15.63;;;9.55;;
77105;SDS011;66057;54.718;18.426;2023-04-29T10:37:06;16.75;;;10.43;;
77105;SDS011;66057;54.718;18.426;2023-04-29T10:42:27;21.70;;;11.90;;
77105;SDS011;66057;54.718;18.426;2023-04-29T10:45:50;15.23;;;9.40;;
77105;SDS011;66057;54.718;18.426;2023-04-29T10:53:11;18.27;;;10.32;;
77105;SDS011;66057;54.718;18.426;2023-04-29T10:55:51;17.95;;;10.88;;
77105;SDS011;66057;54.718;18.426;2023-04-29T11:01:08;16.17;;;10.18;;
77105;SDS011;66057;54.718;18.426;2023-04-29T11:06:13;19.52;;;12.30;;
77105;SDS011;66057;54.718;18.426;2023-04-29T11:08:40;18.77;;;11.25;;
77105;SDS011;66057;54.718;18.426;2023-04-29T11:11:07;15.88;;;10.07;;
77105;SDS011;66057;54.718;18.426;2023-04-29T11:13:38;15.40;;;9.57;;
77105;SDS011;66057;54.718;18.426;2023-04-29T11:16:11;22.88;;;10.63;;
77105;SDS011;66057;54.718;18.426;2023-04-29T11:21:34;19.67;;;11.77;;
77105;SDS011;66057;54.718;18.426;2023-04-29T11:24:02;14.48;;;9.85;;
77105;SDS011;66057;54.718;18.426;2023-04-29T11:26:31;19.33;;;11.27;;
77105;SDS011;66057;54.718;18.426;2023-04-29T11:29:03;18.05;;;11.00;;
77105;SDS011;66057;54.718;18.426;2023-04-29T11:31:30;17.45;;;9.93;;
77105;SDS011;66057;54.718;18.426;2023-04-29T11:34:02;18.80;;;9.90;;
77105;SDS011;66057;54.718;18.426;2023-04-29T11:36:30;16.45;;;9.70;;
77105;SDS011;66057;54.718;18.426;2023-04-29T11:38:58;17.70;;;10.07;;
77105;SDS011;66057;54.718;18.426;2023-04-29T11:41:26;20.70;;;11.77;;
77105;SDS011;66057;54.718;18.426;2023-04-29T11:43:54;15.98;;;10.45;;
77105;SDS011;66057;54.718;18.426;2023-04-29T11:46:23;19.27;;;11.20;;
77105;SDS011;66057;54.718;18.426;2023-04-29T11:48:50;15.43;;;10.43;;
77105;SDS011;66057;54.718;18.426;2023-04-29T11:51:16;18.40;;;11.35;;
77105;SDS011;66057;54.718;18.426;2023-04-29T11:53:44;21.50;;;10.73;;
77105;SDS011;66057;54.718;18.426;2023-04-29T11:56:12;18.67;;;10.63;;
77105;SDS011;66057;54.718;18.426;2023-04-29T11:58:38;14.55;;;9.32;;
77105;SDS011;66057;54.718;18.426;2023-04-29T12:01:05;16.00;;;10.07;;
77105;SDS011;66057;54.718;18.426;2023-04-29T12:03:35;18.75;;;9.32;;
77105;SDS011;66057;54.718;18.426;2023-04-29T12:06:04;16.42;;;10.02;;
77105;SDS011;66057;54.718;18.426;2023-04-29T12:08:39;16.52;;;9.25;;
77105;SDS011;66057;54.718;18.426;2023-04-29T12:11:09;17.02;;;9.73;;
77105;SDS011;66057;54.718;18.426;2023-04-29T12:13:39;11.75;;;8.32;;
77105;SDS011;66057;54.718;18.426;2023-04-29T12:16:08;17.48;;;9.73;;
77105;SDS011;66057;54.718;18.426;2023-04-29T12:18:38;11.98;;;7.75;;
77105;SDS011;66057;54.718;18.426;2023-04-29T12:21:08;11.73;;;8.32;;
77105;SDS011;66057;54.718;18.426;2023-04-29T12:23:34;15.02;;;8.73;;
77105;SDS011;66057;54.718;18.426;2023-04-29T12:26:02;9.85;;;7.60;;
77105;SDS011;66057;54.718;18.426;2023-04-29T12:28:32;10.43;;;6.78;;
77105;SDS011;66057;54.718;18.426;2023-04-29T12:30:59;9.95;;;6.28;;
77105;SDS011;66057;54.718;18.426;2023-04-29T12:33:29;8.77;;;5.10;;
77105;SDS011;66057;54.718;18.426;2023-04-29T12:36:00;8.82;;;4.97;;
77105;SDS011;66057;54.718;18.426;2023-04-29T12:38:31;8.13;;;4.53;;
77105;SDS011;66057;54.718;18.426;2023-04-29T12:40:58;7.72;;;3.95;;
77105;SDS011;66057;54.718;18.426;2023-04-29T12:43:41;7.50;;;5.53;;
77105;SDS011;66057;54.718;18.426;2023-04-29T12:46:09;7.68;;;3.55;;
77105;SDS011;66057;54.718;18.426;2023-04-29T12:48:40;6.05;;;3.40;;
77105;SDS011;66057;54.718;18.426;2023-04-29T12:51:08;7.68;;;3.47;;
77105;SDS011;66057;54.718;18.426;2023-04-29T12:53:37;6.47;;;4.20;;
77105;SDS011;66057;54.718;18.426;2023-04-29T12:56:05;5.63;;;4.00;;
77105;SDS011;66057;54.718;18.426;2023-04-29T12:58:33;7.20;;;3.72;;
77105;SDS011;66057;54.718;18.426;2023-04-29T13:01:00;6.57;;;4.18;;
77105;SDS011;66057;54.718;18.426;2023-04-29T13:03:25;8.07;;;4.95;;
77105;SDS011;66057;54.718;18.426;2023-04-29T13:05:51;7.38;;;4.90;;
77105;SDS011;66057;54.718;18.426;2023-04-29T13:08:20;7.13;;;4.63;;
77105;SDS011;66057;54.718;18.426;2023-04-29T13:10:47;9.30;;;5.40;;
77105;SDS011;66057;54.718;18.426;2023-04-29T13:13:20;5.82;;;4.30;;
77105;SDS011;66057;54.718;18.426;2023-04-29T13:15:47;7.45;;;4.85;;
77105;SDS011;66057;54.718;18.426;2023-04-29T13:18:16;9.73;;;5.40;;
77105;SDS011;66057;54.718;18.426;2023-04-29T13:20:42;9.50;;;5.07;;
77105;SDS011;66057;54.718;18.426;2023-04-29T13:25:39;9.23;;;4.68;;
77105;SDS011;66057;54.718;18.426;2023-04-29T13:28:07;7.07;;;4.45;;
77105;SDS011;66057;54.718;18.426;2023-04-29T13:30:33;8.40;;;5.15;;
77105;SDS011;66057;54.718;18.426;2023-04-29T13:33:00;9.95;;;4.72;;
77105;SDS011;66057;54.718;18.426;2023-04-29T13:35:26;7.15;;;3.90;;
77105;SDS011;66057;54.718;18.426;2023-04-29T13:37:52;12.05;;;4.90;;
77105;SDS011;66057;54.718;18.426;2023-04-29T13:40:18;6.90;;;4.32;;
77105;SDS011;66057;54.718;18.426;2023-04-29T13:42:44;9.50;;;4.82;;
77105;SDS011;66057;54.718;18.426;2023-04-29T13:47:39;7.95;;;4.97;;
77105;SDS011;66057;54.718;18.426;2023-04-29T13:50:05;11.32;;;5.30;;
77105;SDS011;66057;54.718;18.426;2023-04-29T13:52:37;8.70;;;5.00;;
77105;SDS011;66057;54.718;18.426;2023-04-29T13:55:04;14.52;;;8.05;;
77105;SDS011;66057;54.718;18.426;2023-04-29T13:57:31;13.18;;;6.57;;
77105;SDS011;66057;54.718;18.426;2023-04-29T13:59:58;14.30;;;8.30;;
77105;SDS011;66057;54.718;18.426;2023-04-29T14:02:24;7.63;;;4.88;;
77105;SDS011;66057;54.718;18.426;2023-04-29T14:04:51;7.90;;;4.35;;
77105;SDS011;66057;54.718;18.426;2023-04-29T14:07:17;11.07;;;5.82;;
77105;SDS011;66057;54.718;18.426;2023-04-29T14:09:42;7.68;;;4.82;;
77105;SDS011;66057;54.718;18.426;2023-04-29T14:12:12;8.65;;;4.10;;
77105;SDS011;66057;54.718;18.426;2023-04-29T14:14:47;7.95;;;4.90;;
77105;SDS011;66057;54.718;18.426;2023-04-29T14:19:38;9.38;;;4.40;;
77105;SDS011;66057;54.718;18.426;2023-04-29T14:22:10;6.38;;;3.58;;
77105;SDS011;66057;54.718;18.426;2023-04-29T14:24:43;7.53;;;4.30;;
77105;SDS011;66057;54.718;18.426;2023-04-29T14:27:09;6.20;;;3.88;;
77105;SDS011;66057;54.718;18.426;2023-04-29T14:29:36;7.75;;;4.32;;
77105;SDS011;66057;54.718;18.426;2023-04-29T14:32:03;8.77;;;3.95;;
77105;SDS011;66057;54.718;18.426;2023-04-29T14:34:28;4.45;;;3.20;;
77105;SDS011;66057;54.718;18.426;2023-04-29T14:36:54;9.85;;;5.93;;
77105;SDS011;66057;54.718;18.426;2023-04-29T14:39:23;6.38;;;4.20;;
77105;SDS011;66057;54.718;18.426;2023-04-29T14:41:54;8.55;;;4.60;;
77105;SDS011;66057;54.718;18.426;2023-04-29T14:44:20;9.65;;;4.05;;
77105;SDS011;66057;54.718;18.426;2023-04-29T14:46:48;7.13;;;4.25;;
77105;SDS011;66057;54.718;18.426;2023-04-29T14:49:14;8.63;;;4.18;;
77105;SDS011;66057;54.718;18.426;2023-04-29T14:51:44;7.38;;;4.57;;
77105;SDS011;66057;54.718;18.426;2023-04-29T14:54:10;5.97;;;3.65;;
77105;SDS011;66057;54.718;18.426;2023-04-29T14:56:44;12.23;;;4.47;;
77105;SDS011;66057;54.718;18.426;2023-04-29T14:59:10;13.90;;;5.88;;
77105;SDS011;66057;54.718;18.426;2023-04-29T15:01:38;9.43;;;4.57;;
77105;SDS011;66057;54.718;18.426;2023-04-29T15:04:05;8.32;;;4.68;;
77105;SDS011;66057;54.718;18.426;2023-04-29T15:06:31;12.65;;;5.55;;
77105;SDS011;66057;54.718;18.426;2023-04-29T15:08:57;7.63;;;4.53;;
77105;SDS011;66057;54.718;18.426;2023-04-29T15:11:24;18.50;;;6.45;;
77105;SDS011;66057;54.718;18.426;2023-04-29T15:13:51;8.13;;;4.50;;
77105;SDS011;66057;54.718;18.426;2023-04-29T15:18:43;10.98;;;4.78;;
77105;SDS011;66057;54.718;18.426;2023-04-29T15:21:11;11.98;;;4.72;;
77105;SDS011;66057;54.718;18.426;2023-04-29T15:23:37;15.45;;;7.20;;
77105;SDS011;66057;54.718;18.426;2023-04-29T15:26:04;10.88;;;5.20;;
77105;SDS011;66057;54.718;18.426;2023-04-29T15:28:31;14.63;;;6.05;;
77105;SDS011;66057;54.718;18.426;2023-04-29T15:30:57;9.15;;;4.85;;
77105;SDS011;66057;54.718;18.426;2023-04-29T15:33:25;11.43;;;5.93;;
77105;SDS011;66057;54.718;18.426;2023-04-29T15:35:51;13.25;;;6.20;;
77105;SDS011;66057;54.718;18.426;2023-04-29T15:38:16;15.38;;;6.82;;
77105;SDS011;66057;54.718;18.426;2023-04-29T15:40:42;8.23;;;5.63;;
77105;SDS011;66057;54.718;18.426;2023-04-29T15:43:19;15.27;;;7.60;;
77105;SDS011;66057;54.718;18.426;2023-04-29T15:45:50;11.82;;;6.45;;
77105;SDS011;66057;54.718;18.426;2023-04-29T15:48:19;8.40;;;4.90;;
77105;SDS011;66057;54.718;18.426;2023-04-29T15:50:46;8.85;;;5.03;;